createdAt,value
2023-05-23T00:11:31.735Z,31.40
2023-05-23T00:26:34.774Z,28.90
2023-05-23T00:41:37.841Z,28.67
2023-05-23T00:56:40.990Z,27.13
2023-05-23T01:11:48.658Z,26.70
2023-05-23T01:27:01.994Z,26.73
2023-05-23T01:42:05.576Z,26.77
2023-05-23T01:57:08.822Z,25.00
2023-05-23T02:12:11.935Z,24.47
2023-05-23T02:27:15.524Z,24.03
2023-05-23T02:42:18.705Z,20.63
2023-05-23T02:57:22.224Z,17.70
2023-05-23T03:12:25.425Z,17.00
2023-05-23T03:27:29.684Z,17.60
2023-05-23T03:42:32.953Z,16.90
2023-05-23T03:57:36.056Z,22.17
2023-05-23T04:12:39.191Z,21.77
2023-05-23T04:27:44.633Z,23.17
2023-05-23T04:42:48.321Z,22.07
2023-05-23T04:58:13.940Z,16.87
2023-05-23T05:13:17.908Z,16.77
2023-05-23T05:28:24.978Z,16.50
2023-05-23T05:43:29.684Z,16.13
2023-05-23T05:58:32.825Z,12.70
2023-05-23T06:13:39.206Z,12.00
2023-05-23T06:28:43.484Z,10.33
2023-05-23T06:43:48.692Z,11.57
2023-05-23T06:58:59.217Z,10.00
2023-05-23T07:14:03.516Z,8.20
2023-05-23T07:29:21.190Z,6.67
2023-05-23T07:44:25.883Z,7.27
2023-05-23T07:59:30.210Z,6.93
2023-05-23T08:14:46.371Z,5.97
2023-05-23T08:29:59.931Z,6.13
2023-05-23T08:45:03.551Z,5.53
2023-05-23T09:00:09.090Z,4.57
2023-05-23T09:15:12.806Z,6.37
2023-05-23T09:30:17.904Z,5.57
2023-05-23T09:45:29.934Z,5.60
2023-05-23T10:00:33.283Z,5.50
2023-05-23T10:15:39.272Z,5.80
2023-05-23T10:30:43.026Z,7.10
2023-05-23T10:45:46.477Z,8.20
2023-05-23T11:00:53.529Z,8.03
2023-05-23T11:15:56.638Z,7.10
2023-05-23T11:31:00.588Z,6.60
2023-05-23T11:46:09.317Z,4.80
2023-05-23T12:01:12.868Z,4.03
2023-05-23T12:16:16.176Z,3.87
2023-05-23T12:31:21.510Z,4.23
2023-05-23T12:46:26.043Z,3.67
2023-05-23T13:01:29.199Z,3.90
2023-05-23T13:16:32.474Z,3.93
2023-05-23T13:31:35.761Z,5.47
2023-05-23T13:46:38.984Z,7.37
2023-05-23T14:01:42.068Z,6.40
2023-05-23T14:16:45.269Z,8.90
2023-05-23T14:31:48.368Z,8.67
2023-05-23T14:46:51.434Z,11.80
2023-05-23T15:01:54.681Z,9.07
2023-05-23T15:16:57.766Z,9.50
2023-05-23T15:32:01.389Z,6.50
2023-05-23T15:47:06.313Z,8.47
2023-05-23T16:02:10.213Z,5.20
2023-05-23T16:17:14.793Z,4.63
2023-05-23T16:32:18.920Z,6.30
2023-05-23T16:47:22.330Z,5.60
2023-05-23T17:02:25.881Z,8.13
2023-05-23T17:17:29.791Z,4.80
2023-05-23T17:32:33.191Z,4.50
2023-05-23T17:47:37.993Z,4.43
2023-05-23T18:02:41.506Z,5.17
2023-05-23T18:17:45.240Z,4.73
2023-05-23T18:32:48.680Z,5.23
2023-05-23T18:47:52.121Z,6.03
2023-05-23T19:02:57.769Z,5.80
2023-05-23T19:18:04.225Z,5.53
2023-05-23T19:33:07.896Z,6.30
2023-05-23T19:48:15.292Z,5.73
2023-05-23T20:03:19.573Z,5.10
2023-05-23T20:18:27.838Z,6.23
2023-05-23T20:33:33.581Z,5.10
2023-05-23T20:48:39.117Z,5.63
2023-05-23T21:03:43.514Z,5.40
2023-05-23T21:18:47.002Z,6.60
2023-05-23T21:33:51.816Z,6.77
2023-05-23T21:48:54.857Z,5.73
2023-05-23T22:03:58.599Z,4.83
2023-05-23T22:19:01.904Z,5.00
2023-05-23T22:34:05.317Z,4.40
2023-05-23T22:49:08.434Z,5.90
2023-05-23T23:04:11.487Z,4.77
2023-05-23T23:19:14.632Z,5.27
2023-05-23T23:34:17.736Z,5.50
2023-05-23T23:49:20.767Z,5.23
